sensor_id;sensor_type;location;lat;lon;timestamp;P1;durP1;ratioP1;P2;durP2;ratioP2
80421;SDS011;69763;50.182;9.144;2023-11-21T00:03:36;5.07;;;2.27;;
80421;SDS011;69763;50.182;9.144;2023-11-21T00:06:01;6.22;;;2.70;;
80421;SDS011;69763;50.182;9.144;2023-11-21T00:08:27;3.55;;;2.20;;
80421;SDS011;69763;50.182;9.144;2023-11-21T00:10:53;5.72;;;2.97;;
80421;SDS011;69763;50.182;9.144;2023-11-21T00:13:18;6.45;;;3.05;;
80421;SDS011;69763;50.182;9.144;2023-11-21T00:15:45;12.25;;;3.55;;
80421;SDS011;69763;50.182;9.144;2023-11-21T00:18:10;5.57;;;3.35;;
80421;SDS011;69763;50.182;9.144;2023-11-21T00:20:36;10.27;;;3.72;;
80421;SDS011;69763;50.182;9.144;2023-11-21T00:23:01;6.05;;;3.03;;
80421;SDS011;69763;50.182;9.144;2023-11-21T00:25:26;11.50;;;3.88;;
80421;SDS011;69763;50.182;9.144;2023-11-21T00:27:52;7.28;;;3.15;;
80421;SDS011;69763;50.182;9.144;2023-11-21T00:30:17;7.18;;;3.97;;
80421;SDS011;69763;50.182;9.144;2023-11-21T00:32:44;6.45;;;3.22;;
80421;SDS011;69763;50.182;9.144;2023-11-21T00:37:34;7.77;;;3.30;;
80421;SDS011;69763;50.182;9.144;2023-11-21T00:40:00;5.40;;;3.20;;
80421;SDS011;69763;50.182;9.144;2023-11-21T00:42:25;8.43;;;3.13;;
80421;SDS011;69763;50.182;9.144;2023-11-21T00:44:51;6.00;;;3.13;;
80421;SDS011;69763;50.182;9.144;2023-11-21T00:47:16;6.57;;;3.30;;
80421;SDS011;69763;50.182;9.144;2023-11-21T00:49:43;7.75;;;3.05;;
80421;SDS011;69763;50.182;9.144;2023-11-21T00:54:33;10.57;;;3.67;;
80421;SDS011;69763;50.182;9.144;2023-11-21T00:56:59;7.47;;;3.70;;
80421;SDS011;69763;50.182;9.144;2023-11-21T00:59:24;7.53;;;4.15;;
80421;SDS011;69763;50.182;9.144;2023-11-21T01:01:49;8.57;;;3.70;;
80421;SDS011;69763;50.182;9.144;2023-11-21T01:04:15;9.98;;;3.75;;
80421;SDS011;69763;50.182;9.144;2023-11-21T01:06:42;6.57;;;3.65;;
80421;SDS011;69763;50.182;9.144;2023-11-21T01:11:32;7.37;;;3.60;;
80421;SDS011;69763;50.182;9.144;2023-11-21T01:13:57;8.63;;;3.92;;
80421;SDS011;69763;50.182;9.144;2023-11-21T01:16:23;7.38;;;4.35;;
80421;SDS011;69763;50.182;9.144;2023-11-21T01:18:48;7.85;;;4.10;;
80421;SDS011;69763;50.182;9.144;2023-11-21T01:21:14;6.55;;;4.15;;
80421;SDS011;69763;50.182;9.144;2023-11-21T01:23:40;8.45;;;4.20;;
80421;SDS011;69763;50.182;9.144;2023-11-21T01:28:31;9.13;;;3.40;;
80421;SDS011;69763;50.182;9.144;2023-11-21T01:30:56;10.88;;;3.78;;
80421;SDS011;69763;50.182;9.144;2023-11-21T01:33:22;7.97;;;3.75;;
80421;SDS011;69763;50.182;9.144;2023-11-21T01:35:47;7.20;;;3.90;;
80421;SDS011;69763;50.182;9.144;2023-11-21T01:38:12;10.43;;;4.13;;
80421;SDS011;69763;50.182;9.144;2023-11-21T01:40:39;10.05;;;3.50;;
80421;SDS011;69763;50.182;9.144;2023-11-21T01:43:04;9.13;;;3.95;;
80421;SDS011;69763;50.182;9.144;2023-11-21T01:45:30;8.63;;;4.20;;
80421;SDS011;69763;50.182;9.144;2023-11-21T01:47:58;6.20;;;3.40;;
80421;SDS011;69763;50.182;9.144;2023-11-21T01:50:24;5.20;;;3.70;;
80421;SDS011;69763;50.182;9.144;2023-11-21T01:52:50;9.75;;;3.20;;
80421;SDS011;69763;50.182;9.144;2023-11-21T01:55:16;4.82;;;2.60;;
80421;SDS011;69763;50.182;9.144;2023-11-21T01:57:44;11.55;;;3.58;;
80421;SDS011;69763;50.182;9.144;2023-11-21T02:00:10;8.07;;;3.35;;
80421;SDS011;69763;50.182;9.144;2023-11-21T02:02:37;5.60;;;2.78;;
80421;SDS011;69763;50.182;9.144;2023-11-21T02:05:03;8.38;;;2.80;;
80421;SDS011;69763;50.182;9.144;2023-11-21T02:07:28;5.30;;;2.83;;
80421;SDS011;69763;50.182;9.144;2023-11-21T02:09:54;6.97;;;2.80;;
80421;SDS011;69763;50.182;9.144;2023-11-21T02:12:19;4.80;;;2.92;;
80421;SDS011;69763;50.182;9.144;2023-11-21T02:14:46;6.55;;;3.63;;
80421;SDS011;69763;50.182;9.144;2023-11-21T02:17:11;9.23;;;2.95;;
80421;SDS011;69763;50.182;9.144;2023-11-21T02:19:36;5.38;;;3.20;;
80421;SDS011;69763;50.182;9.144;2023-11-21T02:22:02;5.28;;;3.33;;
80421;SDS011;69763;50.182;9.144;2023-11-21T02:24:29;4.25;;;2.60;;
80421;SDS011;69763;50.182;9.144;2023-11-21T02:29:19;5.73;;;3.57;;
80421;SDS011;69763;50.182;9.144;2023-11-21T02:31:45;5.68;;;3.42;;
80421;SDS011;69763;50.182;9.144;2023-11-21T02:34:11;5.60;;;2.92;;
80421;SDS011;69763;50.182;9.144;2023-11-21T02:36:36;11.05;;;4.15;;
80421;SDS011;69763;50.182;9.144;2023-11-21T02:39:02;11.50;;;4.05;;
80421;SDS011;69763;50.182;9.144;2023-11-21T02:41:29;5.82;;;4.00;;
80421;SDS011;69763;50.182;9.144;2023-11-21T02:43:54;6.38;;;3.70;;
80421;SDS011;69763;50.182;9.144;2023-11-21T02:46:20;5.77;;;3.20;;
80421;SDS011;69763;50.182;9.144;2023-11-21T02:48:45;7.15;;;3.25;;
80421;SDS011;69763;50.182;9.144;2023-11-21T02:51:10;6.43;;;2.97;;
80421;SDS011;69763;50.182;9.144;2023-11-21T02:53:36;6.47;;;3.08;;
80421;SDS011;69763;50.182;9.144;2023-11-21T02:56:01;7.35;;;3.92;;
80421;SDS011;69763;50.182;9.144;2023-11-21T02:58:28;6.22;;;2.72;;
80421;SDS011;69763;50.182;9.144;2023-11-21T03:03:18;7.97;;;2.97;;
80421;SDS011;69763;50.182;9.144;2023-11-21T03:05:43;6.32;;;2.75;;
80421;SDS011;69763;50.182;9.144;2023-11-21T03:08:09;5.43;;;2.92;;
80421;SDS011;69763;50.182;9.144;2023-11-21T03:10:34;6.13;;;3.03;;
80421;SDS011;69763;50.182;9.144;2023-11-21T03:12:59;4.18;;;2.53;;
80421;SDS011;69763;50.182;9.144;2023-11-21T03:15:26;6.97;;;2.92;;
80421;SDS011;69763;50.182;9.144;2023-11-21T03:17:52;7.00;;;3.20;;
80421;SDS011;69763;50.182;9.144;2023-11-21T03:20:17;11.02;;;3.65;;
80421;SDS011;69763;50.182;9.144;2023-11-21T03:22:42;5.95;;;3.50;;
80421;SDS011;69763;50.182;9.144;2023-11-21T03:25:08;9.38;;;3.42;;
80421;SDS011;69763;50.182;9.144;2023-11-21T03:27:34;8.40;;;3.30;;
80421;SDS011;69763;50.182;9.144;2023-11-21T03:29:59;7.18;;;3.40;;
80421;SDS011;69763;50.182;9.144;2023-11-21T03:32:26;10.77;;;3.97;;
80421;SDS011;69763;50.182;9.144;2023-11-21T03:34:55;10.30;;;4.47;;
80421;SDS011;69763;50.182;9.144;2023-11-21T03:37:21;6.90;;;3.92;;
80421;SDS011;69763;50.182;9.144;2023-11-21T03:39:46;6.05;;;3.83;;
80421;SDS011;69763;50.182;9.144;2023-11-21T03:42:12;7.50;;;3.53;;
80421;SDS011;69763;50.182;9.144;2023-11-21T03:44:37;6.70;;;4.32;;
80421;SDS011;69763;50.182;9.144;2023-11-21T03:47:03;8.40;;;4.25;;
80421;SDS011;69763;50.182;9.144;2023-11-21T03:49:30;12.52;;;4.13;;
80421;SDS011;69763;50.182;9.144;2023-11-21T03:51:55;9.73;;;4.32;;
80421;SDS011;69763;50.182;9.144;2023-11-21T03:54:21;8.25;;;4.13;;
80421;SDS011;69763;50.182;9.144;2023-11-21T03:56:46;8.85;;;4.60;;
80421;SDS011;69763;50.182;9.144;2023-11-21T03:59:12;7.78;;;4.05;;
80421;SDS011;69763;50.182;9.144;2023-11-21T04:01:37;9.07;;;4.22;;
80421;SDS011;69763;50.182;9.144;2023-11-21T04:04:02;10.73;;;4.57;;
80421;SDS011;69763;50.182;9.144;2023-11-21T04:06:30;11.15;;;4.80;;
80421;SDS011;69763;50.182;9.144;2023-11-21T04:11:20;8.97;;;4.60;;
80421;SDS011;69763;50.182;9.144;2023-11-21T04:13:45;12.77;;;5.50;;
80421;SDS011;69763;50.182;9.144;2023-11-21T04:16:11;9.30;;;4.00;;
80421;SDS011;69763;50.182;9.144;2023-11-21T04:18:36;16.35;;;5.45;;
80421;SDS011;69763;50.182;9.144;2023-11-21T04:21:02;12.52;;;4.43;;
80421;SDS011;69763;50.182;9.144;2023-11-21T04:23:29;10.85;;;5.15;;
80421;SDS011;69763;50.182;9.144;2023-11-21T04:25:55;10.13;;;4.53;;
80421;SDS011;69763;50.182;9.144;2023-11-21T04:28:20;9.13;;;4.88;;
80421;SDS011;69763;50.182;9.144;2023-11-21T04:30:45;8.50;;;4.43;;
80421;SDS011;69763;50.182;9.144;2023-11-21T04:33:11;10.88;;;5.60;;
80421;SDS011;69763;50.182;9.144;2023-11-21T04:35:36;8.18;;;4.35;;
80421;SDS011;69763;50.182;9.144;2023-11-21T04:38:01;8.40;;;4.35;;
80421;SDS011;69763;50.182;9.144;2023-11-21T04:40:28;9.43;;;4.97;;
80421;SDS011;69763;50.182;9.144;2023-11-21T04:42:54;9.95;;;5.25;;
80421;SDS011;69763;50.182;9.144;2023-11-21T04:45:19;15.60;;;5.20;;
80421;SDS011;69763;50.182;9.144;2023-11-21T04:47:44;12.63;;;5.28;;
80421;SDS011;69763;50.182;9.144;2023-11-21T04:50:10;9.27;;;4.38;;
80421;SDS011;69763;50.182;9.144;2023-11-21T04:52:35;10.27;;;4.97;;
80421;SDS011;69763;50.182;9.144;2023-11-21T04:55:01;10.25;;;5.57;;
80421;SDS011;69763;50.182;9.144;2023-11-21T04:57:27;11.00;;;5.95;;
80421;SDS011;69763;50.182;9.144;2023-11-21T04:59:53;10.50;;;4.80;;
80421;SDS011;69763;50.182;9.144;2023-11-21T05:02:18;12.07;;;5.53;;
80421;SDS011;69763;50.182;9.144;2023-11-21T05:04:44;11.88;;;5.07;;
80421;SDS011;69763;50.182;9.144;2023-11-21T05:07:09;11.10;;;6.00;;
80421;SDS011;69763;50.182;9.144;2023-11-21T05:09:35;12.27;;;6.20;;
80421;SDS011;69763;50.182;9.144;2023-11-21T05:12:00;12.30;;;5.80;;
80421;SDS011;69763;50.182;9.144;2023-11-21T05:14:27;10.55;;;5.55;;
80421;SDS011;69763;50.182;9.144;2023-11-21T05:16:52;10.32;;;5.35;;
80421;SDS011;69763;50.182;9.144;2023-11-21T05:19:17;13.93;;;5.93;;
80421;SDS011;69763;50.182;9.144;2023-11-21T05:21:43;11.85;;;6.10;;
80421;SDS011;69763;50.182;9.144;2023-11-21T05:24:08;16.92;;;6.30;;
80421;SDS011;69763;50.182;9.144;2023-11-21T05:26:34;14.07;;;8.63;;
80421;SDS011;69763;50.182;9.144;2023-11-21T05:28:59;18.85;;;7.30;;
80421;SDS011;69763;50.182;9.144;2023-11-21T05:31:26;13.38;;;6.50;;
80421;SDS011;69763;50.182;9.144;2023-11-21T05:33:51;15.45;;;6.65;;
80421;SDS011;69763;50.182;9.144;2023-11-21T05:36:16;13.48;;;6.53;;
80421;SDS011;69763;50.182;9.144;2023-11-21T05:38:42;11.57;;;6.22;;
80421;SDS011;69763;50.182;9.144;2023-11-21T05:41:07;10.20;;;5.60;;
80421;SDS011;69763;50.182;9.144;2023-11-21T05:43:32;11.30;;;5.75;;
80421;SDS011;69763;50.182;9.144;2023-11-21T05:45:58;12.13;;;5.10;;
80421;SDS011;69763;50.182;9.144;2023-11-21T05:48:24;13.25;;;5.88;;
80421;SDS011;69763;50.182;9.144;2023-11-21T05:53:15;12.97;;;5.40;;
80421;SDS011;69763;50.182;9.144;2023-11-21T05:55:40;9.57;;;5.30;;
80421;SDS011;69763;50.182;9.144;2023-11-21T05:58:06;9.40;;;5.68;;
80421;SDS011;69763;50.182;9.144;2023-11-21T06:00:31;13.55;;;5.80;;
80421;SDS011;69763;50.182;9.144;2023-11-21T06:02:57;9.88;;;5.53;;
80421;SDS011;69763;50.182;9.144;2023-11-21T06:05:24;14.27;;;5.75;;
80421;SDS011;69763;50.182;9.144;2023-11-21T06:07:50;14.55;;;6.20;;
80421;SDS011;69763;50.182;9.144;2023-11-21T06:10:15;16.77;;;7.22;;
80421;SDS011;69763;50.182;9.144;2023-11-21T06:12:41;15.70;;;6.45;;
80421;SDS011;69763;50.182;9.144;2023-11-21T06:15:07;17.67;;;6.45;;
80421;SDS011;69763;50.182;9.144;2023-11-21T06:17:33;22.85;;;6.43;;
80421;SDS011;69763;50.182;9.144;2023-11-21T06:19:59;14.00;;;6.32;;
80421;SDS011;69763;50.182;9.144;2023-11-21T06:22:25;14.65;;;6.35;;
80421;SDS011;69763;50.182;9.144;2023-11-21T06:24:51;15.25;;;6.90;;
80421;SDS011;69763;50.182;9.144;2023-11-21T06:27:16;21.02;;;6.88;;
80421;SDS011;69763;50.182;9.144;2023-11-21T06:29:41;12.73;;;6.60;;
80421;SDS011;69763;50.182;9.144;2023-11-21T06:32:07;12.93;;;6.53;;
80421;SDS011;69763;50.182;9.144;2023-11-21T06:34:32;11.70;;;6.28;;
80421;SDS011;69763;50.182;9.144;2023-11-21T06:36:58;11.90;;;4.68;;
80421;SDS011;69763;50.182;9.144;2023-11-21T06:39:24;11.15;;;5.65;;
80421;SDS011;69763;50.182;9.144;2023-11-21T06:41:50;8.82;;;5.15;;
80421;SDS011;69763;50.182;9.144;2023-11-21T06:44:15;12.45;;;5.43;;
80421;SDS011;69763;50.182;9.144;2023-11-21T06:46:40;12.45;;;5.38;;
80421;SDS011;69763;50.182;9.144;2023-11-21T06:49:06;11.25;;;5.55;;
80421;SDS011;69763;50.182;9.144;2023-11-21T06:51:31;9.77;;;5.05;;
80421;SDS011;69763;50.182;9.144;2023-11-21T06:53:57;11.13;;;5.22;;
80421;SDS011;69763;50.182;9.144;2023-11-21T06:56:23;14.23;;;5.10;;
80421;SDS011;69763;50.182;9.144;2023-11-21T07:01:14;9.37;;;4.70;;
80421;SDS011;69763;50.182;9.144;2023-11-21T07:03:39;11.77;;;5.35;;
80421;SDS011;69763;50.182;9.144;2023-11-21T07:06:05;12.98;;;6.10;;
80421;SDS011;69763;50.182;9.144;2023-11-21T07:08:31;11.07;;;5.80;;
80421;SDS011;69763;50.182;9.144;2023-11-21T07:10:56;9.40;;;5.18;;
80421;SDS011;69763;50.182;9.144;2023-11-21T07:13:23;13.50;;;5.10;;
80421;SDS011;69763;50.182;9.144;2023-11-21T07:18:13;12.23;;;4.80;;
80421;SDS011;69763;50.182;9.144;2023-11-21T07:20:39;9.85;;;4.68;;
80421;SDS011;69763;50.182;9.144;2023-11-21T07:23:04;8.57;;;4.40;;
80421;SDS011;69763;50.182;9.144;2023-11-21T07:25:30;7.13;;;4.28;;
80421;SDS011;69763;50.182;9.144;2023-11-21T07:27:55;6.40;;;3.88;;
80421;SDS011;69763;50.182;9.144;2023-11-21T07:30:22;8.10;;;4.22;;
80421;SDS011;69763;50.182;9.144;2023-11-21T07:32:47;10.65;;;4.20;;
80421;SDS011;69763;50.182;9.144;2023-11-21T07:35:12;5.18;;;3.25;;
80421;SDS011;69763;50.182;9.144;2023-11-21T07:37:38;4.85;;;2.88;;
80421;SDS011;69763;50.182;9.144;2023-11-21T07:40:04;8.23;;;3.30;;
80421;SDS011;69763;50.182;9.144;2023-11-21T07:44:55;8.43;;;3.20;;
80421;SDS011;69763;50.182;9.144;2023-11-21T07:47:22;4.75;;;2.70;;
80421;SDS011;69763;50.182;9.144;2023-11-21T07:52:13;4.63;;;3.10;;
80421;SDS011;69763;50.182;9.144;2023-11-21T07:54:38;4.30;;;2.65;;
80421;SDS011;69763;50.182;9.144;2023-11-21T07:57:03;4.28;;;2.75;;
80421;SDS011;69763;50.182;9.144;2023-11-21T07:59:29;5.95;;;2.97;;
80421;SDS011;69763;50.182;9.144;2023-11-21T08:01:54;7.25;;;2.58;;
80421;SDS011;69763;50.182;9.144;2023-11-21T08:04:21;3.53;;;2.15;;
80421;SDS011;69763;50.182;9.144;2023-11-21T08:09:11;7.70;;;2.60;;
80421;SDS011;69763;50.182;9.144;2023-11-21T08:11:37;5.22;;;3.08;;
80421;SDS011;69763;50.182;9.144;2023-11-21T08:14:02;4.60;;;2.50;;
80421;SDS011;69763;50.182;9.144;2023-11-21T08:16:28;6.28;;;2.95;;
80421;SDS011;69763;50.182;9.144;2023-11-21T08:18:53;4.63;;;2.70;;
80421;SDS011;69763;50.182;9.144;2023-11-21T08:21:20;6.20;;;2.75;;
80421;SDS011;69763;50.182;9.144;2023-11-21T08:26:10;5.67;;;2.50;;
80421;SDS011;69763;50.182;9.144;2023-11-21T08:28:36;7.53;;;2.72;;
80421;SDS011;69763;50.182;9.144;2023-11-21T08:31:01;6.75;;;2.72;;
80421;SDS011;69763;50.182;9.144;2023-11-21T08:33:26;6.78;;;3.35;;
80421;SDS011;69763;50.182;9.144;2023-11-21T08:35:52;4.78;;;2.53;;
80421;SDS011;69763;50.182;9.144;2023-11-21T08:38:19;5.25;;;2.88;;
80421;SDS011;69763;50.182;9.144;2023-11-21T08:43:09;7.07;;;2.57;;
80421;SDS011;69763;50.182;9.144;2023-11-21T08:45:34;5.18;;;2.67;;
80421;SDS011;69763;50.182;9.144;2023-11-21T08:48:00;4.50;;;2.60;;
80421;SDS011;69763;50.182;9.144;2023-11-21T08:50:25;6.43;;;2.92;;
80421;SDS011;69763;50.182;9.144;2023-11-21T08:52:51;7.95;;;3.10;;
80421;SDS011;69763;50.182;9.144;2023-11-21T08:55:17;5.75;;;3.00;;
80421;SDS011;69763;50.182;9.144;2023-11-21T08:57:43;7.30;;;3.53;;
80421;SDS011;69763;50.182;9.144;2023-11-21T09:00:09;5.55;;;2.92;;
80421;SDS011;69763;50.182;9.144;2023-11-21T09:05:01;6.70;;;2.70;;
80421;SDS011;69763;50.182;9.144;2023-11-21T09:07:26;7.40;;;2.63;;
80421;SDS011;69763;50.182;9.144;2023-11-21T09:09:52;4.50;;;2.80;;
80421;SDS011;69763;50.182;9.144;2023-11-21T09:12:18;4.10;;;2.30;;
80421;SDS011;69763;50.182;9.144;2023-11-21T09:17:09;5.60;;;2.40;;
80421;SDS011;69763;50.182;9.144;2023-11-21T09:19:34;7.05;;;2.38;;
80421;SDS011;69763;50.182;9.144;2023-11-21T09:22:00;6.68;;;2.40;;
80421;SDS011;69763;50.182;9.144;2023-11-21T09:24:25;4.10;;;2.20;;
80421;SDS011;69763;50.182;9.144;2023-11-21T09:26:50;4.57;;;2.60;;
80421;SDS011;69763;50.182;9.144;2023-11-21T09:29:17;5.20;;;2.83;;
80421;SDS011;69763;50.182;9.144;2023-11-21T09:31:42;3.80;;;2.47;;
80421;SDS011;69763;50.182;9.144;2023-11-21T09:34:08;4.90;;;2.65;;
80421;SDS011;69763;50.182;9.144;2023-11-21T09:36:33;5.65;;;3.08;;
80421;SDS011;69763;50.182;9.144;2023-11-21T09:38:58;9.65;;;3.58;;
80421;SDS011;69763;50.182;9.144;2023-11-21T09:41:26;5.28;;;2.83;;
80421;SDS011;69763;50.182;9.144;2023-11-21T09:43:59;9.50;;;3.55;;
80421;SDS011;69763;50.182;9.144;2023-11-21T09:46:26;6.03;;;3.30;;
80421;SDS011;69763;50.182;9.144;2023-11-21T09:48:53;11.77;;;3.65;;
80421;SDS011;69763;50.182;9.144;2023-11-21T09:51:19;8.27;;;4.00;;
80421;SDS011;69763;50.182;9.144;2023-11-21T09:53:45;7.75;;;3.67;;
80421;SDS011;69763;50.182;9.144;2023-11-21T09:56:14;9.65;;;3.70;;
80421;SDS011;69763;50.182;9.144;2023-11-21T09:58:40;6.85;;;3.30;;
80421;SDS011;69763;50.182;9.144;2023-11-21T10:01:05;5.05;;;3.42;;
80421;SDS011;69763;50.182;9.144;2023-11-21T10:03:32;5.70;;;3.17;;
80421;SDS011;69763;50.182;9.144;2023-11-21T10:06:00;7.03;;;3.28;;
80421;SDS011;69763;50.182;9.144;2023-11-21T10:08:27;5.53;;;3.50;;
80421;SDS011;69763;50.182;9.144;2023-11-21T10:10:54;7.50;;;3.00;;
80421;SDS011;69763;50.182;9.144;2023-11-21T10:13:20;5.22;;;2.80;;
80421;SDS011;69763;50.182;9.144;2023-11-21T10:15:47;9.60;;;3.38;;
80421;SDS011;69763;50.182;9.144;2023-11-21T10:18:15;3.88;;;2.65;;
80421;SDS011;69763;50.182;9.144;2023-11-21T10:20:42;9.35;;;2.88;;
80421;SDS011;69763;50.182;9.144;2023-11-21T10:23:08;6.68;;;2.90;;
80421;SDS011;69763;50.182;9.144;2023-11-21T10:25:34;5.53;;;2.95;;
80421;SDS011;69763;50.182;9.144;2023-11-21T10:28:00;5.35;;;2.80;;
80421;SDS011;69763;50.182;9.144;2023-11-21T10:30:32;8.02;;;3.10;;
80421;SDS011;69763;50.182;9.144;2023-11-21T10:32:58;5.80;;;3.28;;
80421;SDS011;69763;50.182;9.144;2023-11-21T10:35:24;7.70;;;3.38;;
80421;SDS011;69763;50.182;9.144;2023-11-21T10:37:51;7.03;;;2.90;;
80421;SDS011;69763;50.182;9.144;2023-11-21T10:40:27;5.00;;;2.97;;
80421;SDS011;69763;50.182;9.144;2023-11-21T10:42:52;7.55;;;3.10;;
80421;SDS011;69763;50.182;9.144;2023-11-21T10:45:18;5.28;;;3.08;;
80421;SDS011;69763;50.182;9.144;2023-11-21T10:47:43;6.05;;;2.90;;
80421;SDS011;69763;50.182;9.144;2023-11-21T10:50:09;5.93;;;2.70;;
80421;SDS011;69763;50.182;9.144;2023-11-21T10:52:35;6.03;;;3.10;;
80421;SDS011;69763;50.182;9.144;2023-11-21T10:55:02;5.18;;;2.83;;
80421;SDS011;69763;50.182;9.144;2023-11-21T10:57:37;6.13;;;2.80;;
80421;SDS011;69763;50.182;9.144;2023-11-21T11:00:02;4.93;;;2.78;;
80421;SDS011;69763;50.182;9.144;2023-11-21T11:02:29;5.30;;;2.83;;
80421;SDS011;69763;50.182;9.144;2023-11-21T11:04:55;4.00;;;2.50;;
80421;SDS011;69763;50.182;9.144;2023-11-21T11:07:24;4.80;;;2.70;;
80421;SDS011;69763;50.182;9.144;2023-11-21T11:09:52;6.70;;;2.75;;
80421;SDS011;69763;50.182;9.144;2023-11-21T11:12:19;4.78;;;2.72;;
80421;SDS011;69763;50.182;9.144;2023-11-21T11:14:44;4.82;;;2.40;;
80421;SDS011;69763;50.182;9.144;2023-11-21T11:17:10;6.13;;;2.40;;
80421;SDS011;69763;50.182;9.144;2023-11-21T11:19:36;7.78;;;3.10;;
80421;SDS011;69763;50.182;9.144;2023-11-21T11:22:04;6.45;;;2.40;;
80421;SDS011;69763;50.182;9.144;2023-11-21T11:24:44;6.20;;;2.35;;
80421;SDS011;69763;50.182;9.144;2023-11-21T11:27:34;5.05;;;2.20;;
80421;SDS011;69763;50.182;9.144;2023-11-21T11:30:08;7.13;;;2.75;;
80421;SDS011;69763;50.182;9.144;2023-11-21T11:32:43;5.32;;;2.03;;
80421;SDS011;69763;50.182;9.144;2023-11-21T11:35:19;4.35;;;2.40;;
80421;SDS011;69763;50.182;9.144;2023-11-21T11:37:50;5.22;;;2.15;;
80421;SDS011;69763;50.182;9.144;2023-11-21T11:40:16;4.35;;;2.10;;
80421;SDS011;69763;50.182;9.144;2023-11-21T11:42:55;4.43;;;2.13;;
80421;SDS011;69763;50.182;9.144;2023-11-21T11:45:21;5.00;;;2.10;;
80421;SDS011;69763;50.182;9.144;2023-11-21T11:47:47;4.90;;;2.08;;
80421;SDS011;69763;50.182;9.144;2023-11-21T11:50:13;4.05;;;1.98;;
80421;SDS011;69763;50.182;9.144;2023-11-21T11:52:39;6.03;;;2.90;;
80421;SDS011;69763;50.182;9.144;2023-11-21T11:55:06;9.40;;;2.92;;
80421;SDS011;69763;50.182;9.144;2023-11-21T11:57:32;5.68;;;2.58;;
80421;SDS011;69763;50.182;9.144;2023-11-21T12:02:39;5.25;;;2.05;;
80421;SDS011;69763;50.182;9.144;2023-11-21T12:05:09;6.15;;;2.30;;
80421;SDS011;69763;50.182;9.144;2023-11-21T12:07:48;5.47;;;2.53;;
80421;SDS011;69763;50.182;9.144;2023-11-21T12:10:14;4.63;;;2.42;;
80421;SDS011;69763;50.182;9.144;2023-11-21T12:12:44;3.53;;;2.35;;
80421;SDS011;69763;50.182;9.144;2023-11-21T12:15:10;7.97;;;2.88;;
80421;SDS011;69763;50.182;9.144;2023-11-21T12:17:37;6.95;;;3.05;;
80421;SDS011;69763;50.182;9.144;2023-11-21T12:20:03;7.28;;;2.80;;
80421;SDS011;69763;50.182;9.144;2023-11-21T12:22:29;6.32;;;3.03;;
80421;SDS011;69763;50.182;9.144;2023-11-21T12:24:55;4.90;;;2.85;;
80421;SDS011;69763;50.182;9.144;2023-11-21T12:27:20;7.38;;;3.35;;
80421;SDS011;69763;50.182;9.144;2023-11-21T12:29:46;7.43;;;3.15;;
80421;SDS011;69763;50.182;9.144;2023-11-21T12:32:11;5.35;;;3.03;;
80421;SDS011;69763;50.182;9.144;2023-11-21T12:34:38;7.20;;;3.05;;
80421;SDS011;69763;50.182;9.144;2023-11-21T12:37:03;6.60;;;2.92;;
80421;SDS011;69763;50.182;9.144;2023-11-21T12:39:29;7.13;;;3.17;;
80421;SDS011;69763;50.182;9.144;2023-11-21T12:41:54;4.90;;;3.30;;
80421;SDS011;69763;50.182;9.144;2023-11-21T12:44:20;8.93;;;3.15;;
80421;SDS011;69763;50.182;9.144;2023-11-21T12:46:45;8.57;;;3.03;;
80421;SDS011;69763;50.182;9.144;2023-11-21T12:49:11;6.97;;;3.60;;
80421;SDS011;69763;50.182;9.144;2023-11-21T12:51:38;10.00;;;3.50;;
80421;SDS011;69763;50.182;9.144;2023-11-21T12:54:03;5.90;;;3.17;;
80421;SDS011;69763;50.182;9.144;2023-11-21T12:56:29;8.68;;;2.92;;
80421;SDS011;69763;50.182;9.144;2023-11-21T12:58:54;10.25;;;2.95;;
80421;SDS011;69763;50.182;9.144;2023-11-21T13:01:19;6.30;;;3.15;;
80421;SDS011;69763;50.182;9.144;2023-11-21T13:03:48;7.97;;;3.03;;
80421;SDS011;69763;50.182;9.144;2023-11-21T13:06:15;6.10;;;2.78;;
80421;SDS011;69763;50.182;9.144;2023-11-21T13:08:43;6.15;;;3.00;;
80421;SDS011;69763;50.182;9.144;2023-11-21T13:11:09;5.32;;;2.83;;
80421;SDS011;69763;50.182;9.144;2023-11-21T13:13:36;15.30;;;5.85;;
80421;SDS011;69763;50.182;9.144;2023-11-21T13:16:01;13.30;;;4.25;;
80421;SDS011;69763;50.182;9.144;2023-11-21T13:18:27;18.00;;;5.18;;
80421;SDS011;69763;50.182;9.144;2023-11-21T13:20:53;10.43;;;3.40;;
80421;SDS011;69763;50.182;9.144;2023-11-21T13:23:19;5.63;;;3.65;;
80421;SDS011;69763;50.182;9.144;2023-11-21T13:25:46;9.15;;;3.63;;
80421;SDS011;69763;50.182;9.144;2023-11-21T13:28:11;8.20;;;3.40;;
80421;SDS011;69763;50.182;9.144;2023-11-21T13:30:37;12.57;;;4.47;;
80421;SDS011;69763;50.182;9.144;2023-11-21T13:33:03;10.68;;;4.15;;
80421;SDS011;69763;50.182;9.144;2023-11-21T13:35:29;13.82;;;5.47;;
80421;SDS011;69763;50.182;9.144;2023-11-21T13:37:55;13.73;;;5.28;;
80421;SDS011;69763;50.182;9.144;2023-11-21T13:40:20;15.95;;;4.53;;
80421;SDS011;69763;50.182;9.144;2023-11-21T13:42:47;8.27;;;3.55;;
80421;SDS011;69763;50.182;9.144;2023-11-21T13:45:14;9.20;;;2.97;;
80421;SDS011;69763;50.182;9.144;2023-11-21T13:47:39;5.03;;;2.58;;
80421;SDS011;69763;50.182;9.144;2023-11-21T13:50:05;7.63;;;2.90;;
80421;SDS011;69763;50.182;9.144;2023-11-21T13:54:56;8.80;;;3.33;;
80421;SDS011;69763;50.182;9.144;2023-11-21T13:57:22;11.35;;;3.83;;
80421;SDS011;69763;50.182;9.144;2023-11-21T13:59:48;8.07;;;3.65;;
80421;SDS011;69763;50.182;9.144;2023-11-21T14:02:14;9.20;;;3.72;;
80421;SDS011;69763;50.182;9.144;2023-11-21T14:04:39;9.63;;;4.57;;
80421;SDS011;69763;50.182;9.144;2023-11-21T14:07:05;8.88;;;4.25;;
80421;SDS011;69763;50.182;9.144;2023-11-21T14:09:30;9.43;;;3.60;;
80421;SDS011;69763;50.182;9.144;2023-11-21T14:11:55;10.48;;;4.40;;
80421;SDS011;69763;50.182;9.144;2023-11-21T14:14:21;9.80;;;4.00;;
80421;SDS011;69763;50.182;9.144;2023-11-21T14:16:49;8.23;;;4.03;;
80421;SDS011;69763;50.182;9.144;2023-11-21T14:21:40;6.03;;;3.60;;
80421;SDS011;69763;50.182;9.144;2023-11-21T14:24:05;8.23;;;3.10;;
80421;SDS011;69763;50.182;9.144;2023-11-21T14:26:31;7.15;;;3.53;;
80421;SDS011;69763;50.182;9.144;2023-11-21T14:28:56;7.75;;;4.32;;
80421;SDS011;69763;50.182;9.144;2023-11-21T14:31:22;10.05;;;3.72;;
80421;SDS011;69763;50.182;9.144;2023-11-21T14:33:48;12.98;;;4.03;;
80421;SDS011;69763;50.182;9.144;2023-11-21T14:36:14;8.75;;;4.28;;
80421;SDS011;69763;50.182;9.144;2023-11-21T14:38:39;7.50;;;3.95;;
80421;SDS011;69763;50.182;9.144;2023-11-21T14:41:04;8.05;;;4.00;;
80421;SDS011;69763;50.182;9.144;2023-11-21T14:43:30;10.73;;;4.57;;
80421;SDS011;69763;50.182;9.144;2023-11-21T14:45:55;11.05;;;5.68;;
80421;SDS011;69763;50.182;9.144;2023-11-21T14:48:21;9.88;;;4.85;;
80421;SDS011;69763;50.182;9.144;2023-11-21T14:50:47;10.13;;;4.38;;
80421;SDS011;69763;50.182;9.144;2023-11-21T14:53:13;9.57;;;3.88;;
80421;SDS011;69763;50.182;9.144;2023-11-21T14:55:38;8.15;;;3.55;;
80421;SDS011;69763;50.182;9.144;2023-11-21T14:58:04;11.38;;;4.50;;
80421;SDS011;69763;50.182;9.144;2023-11-21T15:00:29;12.88;;;5.13;;
80421;SDS011;69763;50.182;9.144;2023-11-21T15:02:55;10.02;;;4.25;;
80421;SDS011;69763;50.182;9.144;2023-11-21T15:05:20;7.68;;;4.10;;
80421;SDS011;69763;50.182;9.144;2023-11-21T15:07:47;11.32;;;4.85;;
80421;SDS011;69763;50.182;9.144;2023-11-21T15:12:37;7.53;;;4.50;;
80421;SDS011;69763;50.182;9.144;2023-11-21T15:15:03;11.23;;;4.45;;
80421;SDS011;69763;50.182;9.144;2023-11-21T15:17:29;12.55;;;4.57;;
80421;SDS011;69763;50.182;9.144;2023-11-21T15:19:54;7.82;;;4.78;;
80421;SDS011;69763;50.182;9.144;2023-11-21T15:22:20;11.07;;;5.45;;
80421;SDS011;69763;50.182;9.144;2023-11-21T15:24:47;10.48;;;5.45;;
80421;SDS011;69763;50.182;9.144;2023-11-21T15:27:13;14.50;;;5.22;;
80421;SDS011;69763;50.182;9.144;2023-11-21T15:29:38;9.25;;;4.90;;